Time;durP1;ratioP1;P1;durP2;ratioP2;P2;SDS_P1;SDS_P2;PMS_P1;PMS_P2;Temp;Humidity;BMP_temperature;BMP_pressure;BME280_temperature;BME280_humidity;BME280_pressure;Samples;Min_cycle;Max_cycle;Signal;HPM_P1;HPM_P2
2023/03/08 00:02:08;;;;;;;5.10;1.35;;;-2.80;94.00;;;;;;4978876;28;20054;-70
2023/03/08 00:04:35;;;;;;;10.15;1.38;;;-2.80;94.00;;;;;;4981175;28;20058;-70
2023/03/08 00:07:02;;;;;;;10.95;1.67;;;-2.80;94.10;;;;;;4980533;28;20851;-70
2023/03/08 00:09:28;;;;;;;5.07;1.00;;;-2.70;94.50;;;;;;4980682;28;20882;-69
2023/03/08 00:11:55;;;;;;;2.05;0.90;;;-2.70;94.30;;;;;;4981939;28;20142;-69
2023/03/08 00:14:22;;;;;;;9.73;1.13;;;-2.70;94.40;;;;;;4979448;28;20054;-69
2023/03/08 00:16:49;;;;;;;2.90;1.27;;;-2.70;94.30;;;;;;4981687;28;20687;-69
2023/03/08 00:19:16;;;;;;;8.63;1.23;;;-2.70;94.30;;;;;;4979372;28;20058;-69
2023/03/08 00:21:43;;;;;;;10.05;1.05;;;-2.70;94.30;;;;;;4979971;28;20057;-69
2023/03/08 00:24:11;;;;;;;5.30;1.13;;;-2.60;94.30;;;;;;4977652;28;20058;-70
2023/03/08 00:26:38;;;;;;;5.25;0.70;;;-2.70;94.10;;;;;;4980657;28;20046;-69
2023/03/08 00:29:05;;;;;;;4.28;1.23;;;-2.70;94.20;;;;;;4977958;28;20073;-70
2023/03/08 00:31:32;;;;;;;3.33;0.88;;;-2.70;94.30;;;;;;4979955;28;20050;-69
2023/03/08 00:33:59;;;;;;;7.97;1.27;;;-2.80;94.10;;;;;;4981219;28;20051;-69
2023/03/08 00:36:26;;;;;;;4.15;1.00;;;-2.80;94.30;;;;;;4984285;28;20077;-69
2023/03/08 00:38:55;;;;;;;6.07;1.23;;;-2.80;94.30;;;;;;4982590;28;20597;-69
2023/03/08 00:41:22;;;;;;;8.32;0.88;;;-2.80;94.60;;;;;;4981376;28;20057;-69
2023/03/08 00:43:49;;;;;;;10.07;1.35;;;-2.80;94.60;;;;;;4983396;28;20129;-69
2023/03/08 00:46:16;;;;;;;14.55;1.15;;;-2.90;94.80;;;;;;4977291;28;20479;-69
2023/03/08 00:48:45;;;;;;;9.65;2.03;;;-2.90;94.70;;;;;;4982674;28;20054;-70
2023/03/08 00:51:15;;;;;;;6.95;1.33;;;-3.00;94.90;;;;;;4979912;28;20666;-69
2023/03/08 00:53:42;;;;;;;9.98;1.75;;;-3.00;95.20;;;;;;4981976;28;20389;-70
2023/03/08 00:56:10;;;;;;;3.33;1.10;;;-3.00;95.50;;;;;;4983506;28;20773;-70
2023/03/08 00:58:38;;;;;;;7.90;1.10;;;-3.00;95.40;;;;;;4977989;28;20054;-70
2023/03/08 01:01:06;;;;;;;6.40;1.10;;;-3.00;95.30;;;;;;4986365;28;20455;-70
2023/03/08 01:03:34;;;;;;;8.48;1.17;;;-3.00;95.70;;;;;;4981441;28;20085;-70
2023/03/08 01:06:09;;;;;;;2.75;0.82;;;-3.00;95.90;;;;;;4984191;28;20062;-70
2023/03/08 01:08:36;;;;;;;7.60;1.00;;;-3.00;96.00;;;;;;4979458;28;20047;-70
2023/03/08 01:11:03;;;;;;;5.97;1.15;;;-3.00;96.30;;;;;;4983367;28;20062;-70
2023/03/08 01:13:32;;;;;;;7.20;1.17;;;-3.00;96.20;;;;;;4985442;28;20057;-70
2023/03/08 01:16:00;;;;;;;2.25;1.55;;;-3.10;96.20;;;;;;4981773;28;20092;-70
2023/03/08 01:18:27;;;;;;;19.38;1.55;;;-3.10;96.30;;;;;;4978740;28;20128;-70
2023/03/08 01:21:02;;;;;;;4.70;1.73;;;-3.10;96.70;;;;;;4983828;28;20058;-69
2023/03/08 01:23:30;;;;;;;11.95;2.35;;;-3.00;96.90;;;;;;4974623;28;20050;-70
2023/03/08 01:26:02;;;;;;;3.83;1.75;;;-3.00;97.10;;;;;;4978247;28;20061;-70
2023/03/08 01:28:29;;;;;;;9.02;2.95;;;-3.00;97.30;;;;;;4980460;28;20046;-71
2023/03/08 01:31:08;;;;;;;9.05;2.55;;;-2.90;97.60;;;;;;4977393;28;20061;-71
2023/03/08 01:33:36;;;;;;;4.93;2.60;;;-2.90;97.50;;;;;;4980932;28;20042;-68
2023/03/08 01:36:05;;;;;;;15.10;3.47;;;-2.90;97.90;;;;;;4983154;28;20054;-68
2023/03/08 01:38:32;;;;;;;10.27;3.63;;;-2.90;97.70;;;;;;4982532;28;20109;-68
2023/03/08 01:41:00;;;;;;;7.90;2.78;;;-2.90;97.70;;;;;;4982020;28;20053;-69
2023/03/08 01:43:36;;;;;;;6.63;2.75;;;-2.90;97.80;;;;;;4981781;28;20050;-69
2023/03/08 01:46:17;;;;;;;8.73;2.88;;;-2.90;97.80;;;;;;4983336;28;20042;-69
2023/03/08 01:48:53;;;;;;;11.98;3.08;;;-2.90;97.90;;;;;;4978780;28;20623;-69
2023/03/08 01:51:29;;;;;;;8.90;3.00;;;-3.00;97.90;;;;;;4985659;28;20051;-69
2023/03/08 01:53:58;;;;;;;5.15;2.60;;;-3.00;98.10;;;;;;4985015;28;20058;-69
2023/03/08 01:56:26;;;;;;;13.90;3.22;;;-3.00;98.10;;;;;;4983066;28;20142;-69
2023/03/08 01:58:53;;;;;;;10.75;3.17;;;-3.00;98.50;;;;;;4982164;28;20058;-70
2023/03/08 02:01:20;;;;;;;8.50;3.05;;;-2.90;98.80;;;;;;4983728;28;20058;-70
2023/03/08 02:03:47;;;;;;;5.40;2.90;;;-2.90;98.60;;;;;;4979592;28;20057;-70
2023/03/08 02:06:16;;;;;;;15.88;3.33;;;-2.90;98.50;;;;;;4984384;28;20054;-70
2023/03/08 02:08:44;;;;;;;5.75;2.42;;;-2.90;98.40;;;;;;4979388;28;20637;-70
2023/03/08 02:11:13;;;;;;;19.38;3.25;;;-2.90;98.60;;;;;;4981144;28;20906;-70
2023/03/08 02:13:40;;;;;;;5.80;2.72;;;-2.90;98.70;;;;;;4980672;28;20050;-70
2023/03/08 02:16:11;;;;;;;6.28;3.00;;;-2.80;98.80;;;;;;4984321;28;20050;-70
2023/03/08 02:18:49;;;;;;;13.63;3.03;;;-2.80;98.80;;;;;;5000456;23;20049;-70
2023/03/08 02:21:15;;;;;;;6.88;2.25;;;-2.90;98.60;;;;;;5000062;28;20872;-70
2023/03/08 02:23:42;;;;;;;10.10;3.33;;;-2.80;98.70;;;;;;4998451;28;20053;-70
2023/03/08 02:26:09;;;;;;;11.75;3.28;;;-2.80;98.60;;;;;;5003399;28;20054;-69
2023/03/08 02:28:37;;;;;;;10.85;2.80;;;-2.90;98.60;;;;;;5001181;28;20053;-70
2023/03/08 02:31:04;;;;;;;7.00;2.35;;;-2.90;98.70;;;;;;5002783;28;20073;-69
2023/03/08 02:33:32;;;;;;;6.05;2.40;;;-2.90;98.90;;;;;;5002867;28;20452;-69
2023/03/08 02:36:01;;;;;;;4.25;1.98;;;-2.90;98.80;;;;;;5002102;28;20042;-69
2023/03/08 02:38:29;;;;;;;8.65;2.58;;;-2.90;99.00;;;;;;5001375;28;20053;-69
2023/03/08 02:40:56;;;;;;;7.72;2.53;;;-2.90;99.10;;;;;;5002778;28;20066;-69
2023/03/08 02:43:23;;;;;;;9.32;2.38;;;-2.90;98.90;;;;;;5001269;28;20054;-70
2023/03/08 02:45:51;;;;;;;5.13;2.00;;;-3.00;98.90;;;;;;5001020;28;20124;-70
2023/03/08 02:48:18;;;;;;;4.88;2.00;;;-3.10;98.80;;;;;;5001263;28;20055;-70
2023/03/08 02:50:45;;;;;;;6.53;2.15;;;-3.10;98.90;;;;;;5002354;28;20897;-70
2023/03/08 02:53:12;;;;;;;9.10;2.03;;;-3.10;98.90;;;;;;4997862;28;20053;-70
2023/03/08 02:55:39;;;;;;;9.95;1.92;;;-3.20;99.40;;;;;;5002967;28;20056;-70
2023/03/08 02:58:08;;;;;;;8.43;2.22;;;-3.20;99.40;;;;;;5001956;28;20054;-70
2023/03/08 03:00:35;;;;;;;4.18;1.63;;;-3.20;99.60;;;;;;5003614;28;20064;-70
2023/03/08 03:03:02;;;;;;;6.40;1.90;;;-3.20;99.70;;;;;;5001186;28;20699;-70
2023/03/08 03:05:29;;;;;;;9.02;2.20;;;-3.20;99.80;;;;;;5000705;28;20050;-70
2023/03/08 03:07:57;;;;;;;8.50;2.83;;;-3.20;99.80;;;;;;5003393;28;20050;-70
2023/03/08 03:10:24;;;;;;;4.35;1.75;;;-3.20;99.90;;;;;;5002927;28;20052;-70
2023/03/08 03:12:51;;;;;;;4.32;1.85;;;-3.20;100.00;;;;;;5000012;28;20050;-69
2023/03/08 03:15:18;;;;;;;7.38;1.95;;;-3.20;100.00;;;;;;4999248;28;20482;-70
2023/03/08 03:17:45;;;;;;;15.75;2.35;;;-3.20;100.00;;;;;;4998301;28;20050;-69
2023/03/08 03:20:12;;;;;;;6.53;1.80;;;-3.20;100.00;;;;;;5002475;28;20065;-69
2023/03/08 03:22:39;;;;;;;6.03;1.92;;;-3.20;100.00;;;;;;4999303;28;20054;-69
2023/03/08 03:25:06;;;;;;;4.70;1.85;;;-3.20;100.00;;;;;;5000994;28;20049;-69
2023/03/08 03:27:33;;;;;;;12.93;2.13;;;-3.20;100.00;;;;;;5001401;28;20050;-69
2023/03/08 03:30:00;;;;;;;21.45;2.35;;;-3.20;100.00;;;;;;5001695;28;20071;-69
2023/03/08 03:32:27;;;;;;;13.88;2.08;;;-3.20;100.00;;;;;;4996362;28;20049;-69
2023/03/08 03:34:54;;;;;;;4.50;2.10;;;-3.20;100.00;;;;;;5016026;28;20108;-69
2023/03/08 03:37:21;;;;;;;5.43;2.00;;;-3.30;100.00;;;;;;5001937;28;20050;-69
2023/03/08 03:39:48;;;;;;;5.85;2.08;;;-3.20;100.00;;;;;;5001520;28;20600;-69
2023/03/08 03:42:16;;;;;;;9.10;2.80;;;-3.30;100.00;;;;;;4997815;28;20690;-69
2023/03/08 03:44:43;;;;;;;11.15;2.28;;;-3.30;100.00;;;;;;4997828;28;20488;-69
2023/03/08 03:47:10;;;;;;;4.10;1.90;;;-3.30;100.00;;;;;;5001356;28;20049;-71
2023/03/08 03:49:37;;;;;;;12.43;2.55;;;-3.30;100.00;;;;;;4999185;28;20060;-69
2023/03/08 03:52:04;;;;;;;7.60;1.90;;;-3.40;100.00;;;;;;4999643;28;20545;-69
2023/03/08 03:54:31;;;;;;;6.68;1.75;;;-3.40;100.00;;;;;;4998471;28;20046;-70
2023/03/08 03:57:01;;;;;;;7.13;1.83;;;-3.40;100.00;;;;;;5009544;28;20064;-68
2023/03/08 03:59:28;;;;;;;7.22;1.90;;;-3.50;100.00;;;;;;5001950;28;20054;-69
2023/03/08 04:01:55;;;;;;;6.03;1.92;;;-3.50;100.00;;;;;;5000486;28;20060;-69
2023/03/08 04:04:22;;;;;;;7.72;1.85;;;-3.50;100.00;;;;;;5000658;28;20521;-69
2023/03/08 04:06:49;;;;;;;4.45;2.00;;;-3.40;100.00;;;;;;4998843;28;20062;-69
2023/03/08 04:09:17;;;;;;;8.70;1.80;;;-3.40;100.00;;;;;;4997386;28;20086;-69
2023/03/08 04:11:43;;;;;;;9.77;2.85;;;-3.30;100.00;;;;;;4984917;28;20120;-69
2023/03/08 04:14:10;;;;;;;13.38;2.55;;;-3.30;100.00;;;;;;4999521;28;20042;-69
2023/03/08 04:16:39;;;;;;;12.80;2.50;;;-3.30;100.00;;;;;;5000385;28;20635;-69
2023/03/08 04:19:14;;;;;;;6.20;2.53;;;-3.30;100.00;;;;;;4998563;28;20053;-68
2023/03/08 04:21:41;;;;;;;13.55;2.28;;;-3.20;100.00;;;;;;5000411;28;20571;-68
2023/03/08 04:24:08;;;;;;;9.65;2.63;;;-3.20;100.00;;;;;;5001146;28;20697;-68
2023/03/08 04:26:36;;;;;;;6.25;2.53;;;-3.20;100.00;;;;;;5001213;28;20053;-69
2023/03/08 04:29:05;;;;;;;11.43;3.72;;;-3.20;100.00;;;;;;4999122;28;20054;-69
2023/03/08 04:31:33;;;;;;;8.20;2.42;;;-3.20;100.00;;;;;;4998842;28;20152;-69
2023/03/08 04:34:03;;;;;;;12.68;4.03;;;-3.20;100.00;;;;;;5002456;28;20792;-69
2023/03/08 04:36:33;;;;;;;14.32;3.72;;;-3.20;100.00;;;;;;5000954;28;20064;-69
2023/03/08 04:39:00;;;;;;;15.57;3.78;;;-3.20;100.00;;;;;;5002201;28;20064;-69
2023/03/08 04:41:27;;;;;;;13.23;4.55;;;-3.20;100.00;;;;;;5005696;28;20069;-69
2023/03/08 04:43:55;;;;;;;10.30;4.25;;;-3.20;100.00;;;;;;5000698;28;20050;-69
2023/03/08 04:46:26;;;;;;;16.60;4.45;;;-3.20;100.00;;;;;;5002165;28;20168;-69
2023/03/08 04:48:54;;;;;;;25.98;5.00;;;-3.20;100.00;;;;;;5002497;28;20051;-69
2023/03/08 04:51:23;;;;;;;20.20;6.30;;;-3.20;100.00;;;;;;5005016;28;20046;-69
2023/03/08 04:53:50;;;;;;;20.02;5.57;;;-3.20;100.00;;;;;;5005600;28;20072;-69
2023/03/08 04:56:18;;;;;;;18.92;6.13;;;-3.20;100.00;;;;;;5004208;28;20046;-69
2023/03/08 04:58:45;;;;;;;13.85;5.05;;;-3.30;100.00;;;;;;5004140;28;20133;-69
2023/03/08 05:01:21;;;;;;;19.20;6.10;;;-3.30;100.00;;;;;;5002973;28;20054;-69
2023/03/08 05:03:49;;;;;;;16.10;5.88;;;-3.30;100.00;;;;;;5003249;28;20058;-69
2023/03/08 05:06:16;;;;;;;18.83;7.80;;;-3.30;100.00;;;;;;5004460;28;20065;-69
2023/03/08 05:08:43;;;;;;;20.92;8.45;;;-3.20;100.00;;;;;;5000926;28;20135;-69
2023/03/08 05:11:18;;;;;;;33.50;8.50;;;-3.10;100.00;;;;;;4999993;28;20046;-69
2023/03/08 05:13:45;;;;;;;29.08;9.60;;;-3.00;100.00;;;;;;5001533;28;20658;-69
2023/03/08 05:16:12;;;;;;;24.73;9.65;;;-2.90;100.00;;;;;;5002598;28;20780;-69
2023/03/08 05:18:39;;;;;;;33.20;9.75;;;-2.90;100.00;;;;;;5003220;28;20131;-69
2023/03/08 05:21:10;;;;;;;23.67;10.05;;;-2.80;100.00;;;;;;5004674;28;20065;-69
2023/03/08 05:23:37;;;;;;;21.95;9.45;;;-2.80;100.00;;;;;;5003737;28;20049;-69
2023/03/08 05:26:07;;;;;;;22.35;10.02;;;-2.70;100.00;;;;;;5003793;28;20060;-69
2023/03/08 05:28:37;;;;;;;32.53;11.45;;;-2.60;100.00;;;;;;4998643;28;20052;-68
2023/03/08 05:31:09;;;;;;;32.67;10.35;;;-2.60;100.00;;;;;;5002276;28;20050;-69
2023/03/08 05:33:36;;;;;;;28.75;10.75;;;-2.50;100.00;;;;;;5005338;28;20145;-69
2023/03/08 05:36:05;;;;;;;28.85;11.63;;;-2.40;100.00;;;;;;5005007;28;20061;-69
2023/03/08 05:38:32;;;;;;;32.42;11.65;;;-2.40;100.00;;;;;;5003640;28;20056;-69
2023/03/08 05:41:01;;;;;;;27.35;11.23;;;-2.30;100.00;;;;;;5004999;28;20777;-69
2023/03/08 05:43:28;;;;;;;30.83;10.93;;;-2.20;100.00;;;;;;5000750;28;20406;-69
2023/03/08 05:46:01;;;;;;;33.38;10.75;;;-2.10;100.00;;;;;;5004751;28;20065;-69
2023/03/08 05:48:28;;;;;;;26.42;9.93;;;-2.10;100.00;;;;;;5000037;28;20052;-69
2023/03/08 05:50:55;;;;;;;25.20;11.68;;;-2.00;100.00;;;;;;5003117;28;20057;-70
2023/03/08 05:53:22;;;;;;;26.75;10.77;;;-1.90;100.00;;;;;;5003106;28;20046;-70
2023/03/08 05:55:49;;;;;;;30.52;12.73;;;-1.90;100.00;;;;;;5004740;28;20077;-70
2023/03/08 05:58:16;;;;;;;37.85;11.93;;;-1.80;100.00;;;;;;4997875;28;20395;-70
2023/03/08 06:00:43;;;;;;;42.20;14.98;;;-1.70;100.00;;;;;;5003654;28;20057;-69
2023/03/08 06:03:09;;;;;;;30.00;11.98;;;-1.70;100.00;;;;;;5002638;28;20065;-70
2023/03/08 06:05:36;;;;;;;40.38;12.48;;;-1.60;100.00;;;;;;5003683;28;20435;-70
2023/03/08 06:08:04;;;;;;;33.95;12.75;;;-1.60;100.00;;;;;;5003631;28;20418;-69
2023/03/08 06:10:31;;;;;;;32.53;12.43;;;-1.50;100.00;;;;;;5001933;28;20050;-69
2023/03/08 06:12:58;;;;;;;29.80;12.77;;;-1.50;100.00;;;;;;5002593;28;20050;-70
2023/03/08 06:15:25;;;;;;;34.05;14.05;;;-1.40;100.00;;;;;;5004658;28;20069;-70
2023/03/08 06:17:53;;;;;;;33.13;12.27;;;-1.40;99.90;;;;;;5000979;28;20050;-69
2023/03/08 06:20:19;;;;;;;33.75;13.88;;;-1.30;99.50;;;;;;4999885;28;20100;-69
2023/03/08 06:22:46;;;;;;;30.67;12.93;;;-1.30;99.60;;;;;;5000722;28;20366;-70
2023/03/08 06:25:13;;;;;;;41.58;14.35;;;-1.30;99.60;;;;;;5001683;28;20132;-69
2023/03/08 06:27:40;;;;;;;36.33;15.25;;;-1.20;99.20;;;;;;5001184;28;20054;-69
2023/03/08 06:30:08;;;;;;;42.70;15.70;;;-1.20;98.80;;;;;;5002743;28;20719;-70
2023/03/08 06:32:36;;;;;;;42.58;15.30;;;-1.20;99.00;;;;;;5002047;28;20046;-69
2023/03/08 06:35:04;;;;;;;46.92;16.48;;;-1.10;99.00;;;;;;4999742;28;20054;-69
2023/03/08 06:37:33;;;;;;;51.28;15.32;;;-1.00;98.50;;;;;;4997697;28;20403;-69
2023/03/08 06:40:00;;;;;;;39.00;15.30;;;-1.00;98.20;;;;;;5001634;28;20621;-70
2023/03/08 06:42:27;;;;;;;43.92;14.65;;;-1.00;98.20;;;;;;5003874;28;20163;-69
2023/03/08 06:45:08;;;;;;;42.78;15.95;;;-0.90;98.00;;;;;;4999659;28;20235;-69
2023/03/08 06:47:35;;;;;;;42.00;15.63;;;-0.90;97.70;;;;;;5003088;28;20096;-69
2023/03/08 06:50:02;;;;;;;37.58;14.82;;;-0.90;97.50;;;;;;5003052;28;20061;-70
2023/03/08 06:52:36;;;;;;;42.33;15.35;;;-0.90;97.30;;;;;;4995903;28;20092;-70
2023/03/08 06:55:04;;;;;;;37.03;14.88;;;-0.90;97.20;;;;;;5000059;28;20395;-70
2023/03/08 06:57:31;;;;;;;29.65;12.20;;;-0.90;97.30;;;;;;4999923;28;20046;-70
2023/03/08 06:59:57;;;;;;;32.28;11.68;;;-0.80;96.70;;;;;;4999629;28;20060;-69
2023/03/08 07:02:24;;;;;;;29.67;11.68;;;-0.80;96.80;;;;;;5001360;28;20056;-70
2023/03/08 07:04:51;;;;;;;38.38;12.45;;;-0.80;96.60;;;;;;4993758;28;20475;-69
2023/03/08 07:07:18;;;;;;;26.85;11.57;;;-0.80;96.50;;;;;;4998629;28;20652;-69
2023/03/08 07:09:45;;;;;;;23.95;10.80;;;-0.70;96.50;;;;;;5001842;28;20042;-69
2023/03/08 07:12:12;;;;;;;30.05;11.60;;;-0.70;96.60;;;;;;4998800;28;20077;-69
2023/03/08 07:14:39;;;;;;;24.15;10.32;;;-0.70;96.50;;;;;;4996317;28;20049;-69
2023/03/08 07:17:05;;;;;;;22.88;9.85;;;-0.70;96.30;;;;;;4998850;28;20664;-69
2023/03/08 07:19:32;;;;;;;31.83;12.27;;;-0.60;96.10;;;;;;4998202;28;20057;-70
2023/03/08 07:21:59;;;;;;;24.63;10.32;;;-0.60;95.90;;;;;;4998068;28;20759;-69
2023/03/08 07:24:26;;;;;;;25.50;9.88;;;-0.60;95.40;;;;;;4999676;28;20060;-69
2023/03/08 07:26:53;;;;;;;26.23;9.65;;;-0.60;95.60;;;;;;4999166;28;22073;-69
2023/03/08 07:29:19;;;;;;;23.38;9.05;;;-0.60;95.80;;;;;;4998761;28;20041;-69
2023/03/08 07:31:46;;;;;;;21.95;9.60;;;-0.50;95.90;;;;;;4999008;28;20046;-70
2023/03/08 07:34:13;;;;;;;26.60;9.68;;;-0.50;95.30;;;;;;5000576;28;20714;-70
2023/03/08 07:36:40;;;;;;;20.50;9.50;;;-0.40;95.30;;;;;;5001219;28;20076;-70
2023/03/08 07:39:07;;;;;;;27.40;10.77;;;-0.40;95.20;;;;;;4997836;28;20426;-69
2023/03/08 07:41:34;;;;;;;21.70;10.27;;;-0.30;95.20;;;;;;5001592;28;20121;-70
2023/03/08 07:44:01;;;;;;;22.92;9.57;;;-0.30;94.90;;;;;;4998695;28;20056;-70
2023/03/08 07:46:28;;;;;;;26.67;9.13;;;-0.20;94.50;;;;;;5000149;28;20684;-70
2023/03/08 07:48:55;;;;;;;18.23;8.38;;;-0.20;93.70;;;;;;4998555;28;20049;-70
2023/03/08 07:51:22;;;;;;;23.60;9.10;;;-0.20;93.20;;;;;;4999819;28;20048;-70
2023/03/08 07:53:51;;;;;;;20.15;8.35;;;-0.20;93.60;;;;;;4999846;28;20503;-70
2023/03/08 07:56:17;;;;;;;20.27;8.15;;;-0.20;93.10;;;;;;5000674;28;20045;-74
2023/03/08 07:58:45;;;;;;;20.23;8.85;;;-0.20;93.30;;;;;;4996811;28;20065;-75
2023/03/08 08:01:13;;;;;;;23.00;8.15;;;-0.10;93.10;;;;;;4999063;28;20133;-72
2023/03/08 08:03:40;;;;;;;22.95;8.93;;;-0.10;93.00;;;;;;4994395;28;20056;-71
2023/03/08 08:06:07;;;;;;;25.70;9.40;;;-0.10;92.90;;;;;;4996636;28;20050;-73
2023/03/08 08:08:34;;;;;;;20.92;7.90;;;-0.10;93.50;;;;;;5002157;28;20050;-71
2023/03/08 08:11:01;;;;;;;25.80;8.57;;;0.00;93.90;;;;;;4997982;28;20649;-72
2023/03/08 08:13:28;;;;;;;23.25;8.63;;;0.00;93.30;;;;;;4998733;28;20410;-73
2023/03/08 08:16:02;;;;;;;24.30;8.88;;;0.20;93.00;;;;;;5001542;28;20056;-73
2023/03/08 08:18:28;;;;;;;14.90;7.15;;;0.20;91.40;;;;;;5002576;28;20059;-72
2023/03/08 08:21:03;;;;;;;21.27;7.57;;;0.20;90.90;;;;;;5001841;28;20054;-72
2023/03/08 08:23:31;;;;;;;16.67;7.72;;;0.30;91.10;;;;;;4997144;28;20066;-73
2023/03/08 08:25:58;;;;;;;21.00;7.65;;;0.30;90.10;;;;;;5003744;28;20056;-74
2023/03/08 08:28:25;;;;;;;19.02;7.07;;;0.40;88.70;;;;;;5000916;28;20049;-74
2023/03/08 08:31:11;;;;;;;18.45;6.88;;;0.50;88.70;;;;;;5004726;28;20165;-73
2023/03/08 08:33:39;;;;;;;15.68;6.97;;;0.60;89.20;;;;;;5001614;28;20041;-74
2023/03/08 08:36:09;;;;;;;20.35;7.88;;;0.70;89.30;;;;;;5002366;28;20056;-73
2023/03/08 08:38:36;;;;;;;18.17;7.30;;;0.80;88.60;;;;;;5004298;28;20064;-74
2023/03/08 08:41:05;;;;;;;21.17;7.75;;;1.00;88.40;;;;;;4998387;28;20693;-76
2023/03/08 08:43:34;;;;;;;17.98;7.43;;;1.40;86.90;;;;;;5002784;28;20088;-72
2023/03/08 08:46:02;;;;;;;16.42;7.15;;;1.60;86.00;;;;;;4999958;28;20065;-72
2023/03/08 08:48:32;;;;;;;16.58;7.57;;;1.80;84.70;;;;;;4999078;28;20452;-72
2023/03/08 08:50:59;;;;;;;15.93;6.88;;;1.90;84.20;;;;;;5018054;28;20050;-72
2023/03/08 08:53:27;;;;;;;16.85;7.63;;;2.10;82.80;;;;;;5001913;28;20053;-72
2023/03/08 08:55:54;;;;;;;18.90;7.03;;;2.20;81.90;;;;;;4999855;28;20088;-72
2023/03/08 08:58:20;;;;;;;17.50;7.05;;;2.30;81.70;;;;;;5002351;28;20464;-72
2023/03/08 09:00:47;;;;;;;18.35;6.72;;;2.30;81.90;;;;;;5000682;28;20053;-72
2023/03/08 09:03:17;;;;;;;14.60;6.97;;;2.40;81.20;;;;;;4996556;28;20060;-72
2023/03/08 09:05:44;;;;;;;20.75;6.43;;;2.40;81.10;;;;;;4998213;28;20062;-73
2023/03/08 09:08:11;;;;;;;19.63;7.47;;;2.50;81.20;;;;;;4998367;28;20053;-73
2023/03/08 09:10:40;;;;;;;18.23;6.80;;;2.60;81.10;;;;;;4998286;28;20061;-73
2023/03/08 09:13:07;;;;;;;14.93;6.75;;;2.70;81.10;;;;;;4997913;28;20050;-73
2023/03/08 09:15:36;;;;;;;18.98;7.43;;;2.80;81.90;;;;;;4997309;28;20049;-73
2023/03/08 09:18:03;;;;;;;19.65;7.57;;;3.40;80.70;;;;;;4995930;28;20054;-73
2023/03/08 09:20:30;;;;;;;21.35;7.28;;;4.00;79.00;;;;;;4999198;28;20053;-73
2023/03/08 09:22:56;;;;;;;16.77;6.85;;;4.60;75.60;;;;;;4997301;28;20069;-73
2023/03/08 09:25:23;;;;;;;12.85;6.18;;;4.70;74.10;;;;;;4996630;28;20045;-74
2023/03/08 09:27:50;;;;;;;16.73;6.50;;;4.60;73.60;;;;;;4996810;28;20056;-75
2023/03/08 09:30:17;;;;;;;12.13;6.43;;;4.50;73.10;;;;;;5012826;28;20050;-74
2023/03/08 09:32:44;;;;;;;15.50;5.75;;;4.30;73.20;;;;;;4998071;28;20054;-74
2023/03/08 09:35:11;;;;;;;11.73;5.35;;;4.10;75.30;;;;;;4999879;28;20046;-74
2023/03/08 09:37:38;;;;;;;13.70;5.82;;;4.00;73.90;;;;;;5002280;28;20050;-74
2023/03/08 09:40:08;;;;;;;25.42;7.30;;;4.10;74.30;;;;;;4996887;28;20052;-74
2023/03/08 09:42:37;;;;;;;11.10;5.20;;;3.80;74.80;;;;;;4997753;28;20042;-74
2023/03/08 09:45:22;;;;;;;12.35;6.10;;;3.50;73.80;;;;;;4997281;28;20103;-74
2023/03/08 09:48:05;;;;;;;17.40;5.55;;;3.50;75.00;;;;;;4998552;28;20061;-74
2023/03/08 09:50:38;;;;;;;12.20;5.30;;;3.50;74.60;;;;;;4997332;28;20525;-74
2023/03/08 09:53:19;;;;;;;14.05;5.20;;;3.30;74.30;;;;;;4997695;28;20057;-73
2023/03/08 09:56:11;;;;;;;16.23;5.15;;;3.20;74.60;;;;;;4997958;28;20137;-73
2023/03/08 09:58:49;;;;;;;13.98;5.47;;;3.00;74.90;;;;;;4987412;28;20054;-74
2023/03/08 10:01:31;;;;;;;13.75;5.75;;;2.90;76.80;;;;;;4995871;28;20042;-73
2023/03/08 10:04:04;;;;;;;18.77;6.40;;;2.90;75.80;;;;;;4995967;28;20057;-74
2023/03/08 10:06:49;;;;;;;15.23;5.72;;;2.80;76.40;;;;;;4998265;28;20137;-72
2023/03/08 10:09:33;;;;;;;20.45;5.35;;;2.70;77.40;;;;;;4995602;28;20038;-72
2023/03/08 10:12:11;;;;;;;42.97;8.00;;;2.70;77.40;;;;;;4997868;28;20690;-72
2023/03/08 10:14:43;;;;;;;15.52;5.05;;;2.60;77.40;;;;;;4996827;28;20061;-73
2023/03/08 10:17:39;;;;;;;16.02;5.53;;;2.40;77.30;;;;;;4998953;28;20045;-74
2023/03/08 10:20:36;;;;;;;17.33;6.03;;;2.30;77.10;;;;;;4997869;28;20060;-75
2023/03/08 10:23:12;;;;;;;19.10;5.38;;;2.10;78.50;;;;;;4997066;28;20495;-75
2023/03/08 10:25:39;;;;;;;10.02;5.18;;;2.10;78.20;;;;;;4998890;28;20049;-75
2023/03/08 10:28:19;;;;;;;12.65;4.57;;;2.00;79.20;;;;;;4999056;28;20057;-74
2023/03/08 10:30:55;;;;;;;11.32;4.15;;;1.90;78.60;;;;;;4996789;28;20057;-74
2023/03/08 10:33:23;;;;;;;8.25;3.90;;;1.90;78.00;;;;;;4996367;28;20573;-75
2023/03/08 10:36:20;;;;;;;7.90;3.83;;;1.90;77.60;;;;;;4996839;28;20478;-74
2023/03/08 10:39:08;;;;;;;17.83;4.50;;;1.90;78.00;;;;;;4995469;28;20056;-74
2023/03/08 10:41:54;;;;;;;10.50;3.72;;;1.90;78.20;;;;;;4997932;28;20050;-74
2023/03/08 10:44:32;;;;;;;7.80;3.15;;;2.00;76.30;;;;;;4998360;28;20054;-74
2023/03/08 10:47:03;;;;;;;12.70;3.67;;;2.10;75.80;;;;;;4997166;28;20103;-76
2023/03/08 10:49:30;;;;;;;7.07;3.38;;;2.20;75.50;;;;;;4997889;28;20045;-75
2023/03/08 10:51:59;;;;;;;13.50;3.65;;;2.30;75.20;;;;;;4997152;28;20714;-76
2023/03/08 10:54:28;;;;;;;10.20;3.75;;;2.40;75.90;;;;;;4999175;28;20092;-75
2023/03/08 10:56:58;;;;;;;10.00;4.05;;;2.60;77.40;;;;;;4993202;28;20133;-75
2023/03/08 10:59:31;;;;;;;7.95;4.05;;;2.70;75.70;;;;;;4998548;28;20394;-75
2023/03/08 11:02:13;;;;;;;8.25;3.55;;;2.80;75.90;;;;;;4997666;28;20065;-76
2023/03/08 11:04:54;;;;;;;5.63;3.50;;;2.80;75.90;;;;;;4998095;28;20045;-74
2023/03/08 11:07:30;;;;;;;12.18;4.55;;;2.90;75.40;;;;;;4997186;28;20057;-74
2023/03/08 11:10:12;;;;;;;6.15;3.40;;;3.10;75.70;;;;;;4997022;28;20050;-74
2023/03/08 11:12:39;;;;;;;8.90;3.30;;;3.20;74.20;;;;;;4997134;28;20112;-73
2023/03/08 11:15:16;;;;;;;10.60;3.88;;;3.30;73.00;;;;;;4995967;28;20049;-75
2023/03/08 11:18:05;;;;;;;11.20;3.55;;;3.30;72.60;;;;;;4995409;28;20748;-72
2023/03/08 11:20:41;;;;;;;9.90;3.47;;;3.30;72.60;;;;;;5000528;28;20060;-73
2023/03/08 11:23:25;;;;;;;4.97;2.83;;;3.40;73.50;;;;;;4996607;28;20054;-73
2023/03/08 11:26:22;;;;;;;10.23;3.90;;;3.50;71.00;;;;;;4998445;28;20049;-76
2023/03/08 11:29:11;;;;;;;7.43;3.38;;;3.60;71.40;;;;;;4987454;28;20461;-76
2023/03/08 11:32:28;;;;;;;9.70;4.15;;;3.60;71.70;;;;;;5000952;28;20195;-76
2023/03/08 11:35:04;;;;;;;8.73;3.70;;;4.10;72.20;;;;;;4996504;28;20108;-77
2023/03/08 11:37:37;;;;;;;8.63;3.42;;;4.50;69.50;;;;;;5000324;28;20046;-76
2023/03/08 11:40:17;;;;;;;10.85;3.58;;;4.50;69.20;;;;;;4998700;28;20462;-76
2023/03/08 11:43:16;;;;;;;13.38;3.33;;;4.80;68.30;;;;;;4998620;28;20042;-77
2023/03/08 11:45:57;;;;;;;5.88;3.17;;;4.70;65.90;;;;;;4973776;28;20046;-75
2023/03/08 11:48:33;;;;;;;11.35;3.67;;;4.50;66.70;;;;;;5005102;28;20064;-76
2023/03/08 11:51:41;;;;;;;6.50;3.13;;;4.30;67.90;;;;;;5001829;28;20077;-75
2023/03/08 11:54:26;;;;;;;21.70;4.03;;;4.00;68.20;;;;;;4924661;29;20051;-75
2023/03/08 11:57:02;;;;;;;7.13;3.20;;;3.90;69.50;;;;;;4995709;28;20096;-76
2023/03/08 11:59:37;;;;;;;10.25;3.33;;;3.90;70.10;;;;;;4996619;28;20046;-76
2023/03/08 12:02:09;;;;;;;13.43;3.80;;;3.80;70.50;;;;;;4997237;28;20124;-75
2023/03/08 12:05:02;;;;;;;10.20;3.40;;;3.90;71.10;;;;;;4994775;28;20064;-75
2023/03/08 12:07:41;;;;;;;13.73;3.58;;;3.80;70.90;;;;;;4998470;28;20163;-75
2023/03/08 12:10:25;;;;;;;10.32;3.05;;;3.90;69.90;;;;;;4998277;28;20048;-75
2023/03/08 12:13:00;;;;;;;11.00;3.65;;;3.90;68.60;;;;;;5001154;28;20046;-76
2023/03/08 12:15:32;;;;;;;16.73;3.80;;;3.90;68.60;;;;;;5001021;28;20054;-76
2023/03/08 12:18:09;;;;;;;8.82;3.20;;;3.70;69.40;;;;;;4997803;28;20116;-75
2023/03/08 12:20:41;;;;;;;4.80;2.85;;;3.70;70.60;;;;;;4998411;28;20064;-74
2023/03/08 12:23:12;;;;;;;6.95;3.10;;;3.70;69.50;;;;;;4996874;28;20132;-74
2023/03/08 12:25:44;;;;;;;9.10;2.92;;;3.70;69.40;;;;;;4994168;28;20060;-75
2023/03/08 12:28:25;;;;;;;8.27;2.90;;;3.70;68.50;;;;;;4998690;28;20058;-74
2023/03/08 12:31:13;;;;;;;6.63;2.80;;;3.70;68.70;;;;;;4994446;28;20144;-74
2023/03/08 12:33:53;;;;;;;6.72;3.25;;;3.60;69.40;;;;;;4997522;28;20073;-74
2023/03/08 12:36:21;;;;;;;5.30;2.50;;;3.50;68.50;;;;;;4998068;28;20050;-74
2023/03/08 12:38:55;;;;;;;7.18;3.13;;;3.40;68.30;;;;;;4998974;28;20050;-74
2023/03/08 12:41:25;;;;;;;14.02;4.28;;;3.30;68.90;;;;;;4998281;28;20052;-74
2023/03/08 12:44:04;;;;;;;10.30;4.20;;;3.20;69.50;;;;;;4995735;28;20819;-75
2023/03/08 12:46:49;;;;;;;9.02;4.47;;;3.10;70.50;;;;;;4996563;28;20049;-75
2023/03/08 12:49:38;;;;;;;8.52;3.65;;;3.00;71.50;;;;;;4998086;28;20132;-76
2023/03/08 12:52:17;;;;;;;9.23;3.00;;;3.00;72.00;;;;;;4997186;28;20128;-75
2023/03/08 12:54:56;;;;;;;4.28;2.67;;;3.00;72.20;;;;;;4999314;28;20407;-74
2023/03/08 12:57:31;;;;;;;10.48;3.20;;;3.10;70.80;;;;;;4999306;28;20057;-74
2023/03/08 13:00:09;;;;;;;11.02;2.97;;;3.20;70.40;;;;;;5000386;28;20064;-74